Time;durP1;ratioP1;P1;durP2;ratioP2;P2;SDS_P1;SDS_P2;PMS_P1;PMS_P2;Temp;Humidity;BMP_temperature;BMP_pressure;BME280_temperature;BME280_humidity;BME280_pressure;Samples;Min_cycle;Max_cycle;Signal;HPM_P1;HPM_P2
2021/01/13 00:00:00;;;;;;;0.00;0.00;;;0.40;99.90;;;;;;5048329;28;20032;-90
2021/01/13 00:02:26;;;;;;;0.00;0.00;;;0.50;99.90;;;;;;5048640;28;20043;-90
2021/01/13 00:04:52;;;;;;;0.00;0.00;;;0.40;99.90;;;;;;5048321;28;20455;-90
2021/01/13 00:07:17;;;;;;;0.00;0.00;;;0.40;99.90;;;;;;5048471;28;20021;-90
2021/01/13 00:09:43;;;;;;;0.00;0.00;;;0.40;99.90;;;;;;5048206;28;20395;-90
2021/01/13 00:12:10;;;;;;;0.00;0.00;;;0.50;99.90;;;;;;5048367;28;20444;-91
2021/01/13 00:14:37;;;;;;;0.00;0.00;;;0.50;99.90;;;;;;5081488;28;20040;-91
2021/01/13 00:17:03;;;;;;;0.00;0.00;;;0.50;99.90;;;;;;5081499;28;20036;-90
2021/01/13 00:19:29;;;;;;;0.00;0.00;;;0.50;99.90;;;;;;5081247;28;20409;-90
2021/01/13 00:21:55;;;;;;;0.00;0.00;;;0.40;99.90;;;;;;5048040;28;20035;-89
2021/01/13 00:24:22;;;;;;;0.00;0.00;;;0.30;99.90;;;;;;5048340;28;20044;-90
2021/01/13 00:26:48;;;;;;;0.00;0.00;;;0.40;99.90;;;;;;5081528;28;20032;-90
2021/01/13 00:29:18;;;;;;;0.00;0.00;;;0.40;99.90;;;;;;5081348;28;20103;-91
2021/01/13 00:31:44;;;;;;;0.00;0.00;;;0.40;99.90;;;;;;5047880;28;20024;-90
2021/01/13 00:34:11;;;;;;;0.00;0.00;;;0.30;99.90;;;;;;5083922;28;20025;-91
2021/01/13 00:36:37;;;;;;;0.00;0.00;;;0.20;99.90;;;;;;5068643;28;20077;-90
2021/01/13 00:39:04;;;;;;;0.00;0.00;;;0.30;99.90;;;;;;5052179;28;20112;-91
2021/01/13 00:41:30;;;;;;;0.45;0.45;;;0.20;99.90;;;;;;5085476;28;20025;-91
2021/01/13 00:43:56;;;;;;;0.00;0.00;;;0.20;99.90;;;;;;5051961;28;20067;-89
2021/01/13 00:46:22;;;;;;;0.00;0.00;;;0.20;99.90;;;;;;5051875;28;20035;-90
2021/01/13 00:48:48;;;;;;;0.00;0.00;;;0.20;99.90;;;;;;5051647;28;20024;-90
2021/01/13 00:51:14;;;;;;;0.00;0.00;;;0.20;99.90;;;;;;5051685;28;20033;-89
2021/01/13 00:53:40;;;;;;;0.00;0.00;;;0.20;99.90;;;;;;5085333;28;20021;-89
2021/01/13 00:56:06;;;;;;;0.00;0.00;;;0.20;99.90;;;;;;5051854;28;20049;-90
2021/01/13 00:58:32;;;;;;;0.00;0.00;;;0.20;99.90;;;;;;5051662;28;20107;-90
2021/01/13 01:01:00;;;;;;;0.00;0.00;;;0.30;99.90;;;;;;5051603;28;20581;-89
2021/01/13 01:03:25;;;;;;;0.00;0.00;;;0.20;99.90;;;;;;5051721;28;20160;-89
2021/01/13 01:05:51;;;;;;;0.00;0.00;;;0.20;99.90;;;;;;5051650;28;20096;-90
2021/01/13 01:08:17;;;;;;;0.00;0.00;;;0.30;99.90;;;;;;5053097;28;20033;-89
2021/01/13 01:10:47;;;;;;;0.00;0.00;;;0.40;99.90;;;;;;5085784;28;20039;-89
2021/01/13 01:13:13;;;;;;;0.00;0.00;;;0.40;99.90;;;;;;5053354;28;20111;-89
2021/01/13 01:15:38;;;;;;;6.03;2.42;;;0.50;99.90;;;;;;5052148;28;20049;-91
2021/01/13 01:18:04;;;;;;;0.00;0.00;;;0.50;99.90;;;;;;5034247;28;20057;-90
2021/01/13 01:20:30;;;;;;;0.00;0.00;;;0.50;99.90;;;;;;5034589;28;20055;-90
2021/01/13 01:22:58;;;;;;;0.17;0.13;;;0.60;99.90;;;;;;5035092;28;20477;-90
2021/01/13 01:25:28;;;;;;;0.00;0.00;;;0.60;99.90;;;;;;5034931;28;20032;-89
2021/01/13 01:27:56;;;;;;;0.00;0.00;;;0.50;99.90;;;;;;5034641;28;20033;-90
2021/01/13 01:30:24;;;;;;;0.00;0.00;;;0.60;99.90;;;;;;5034449;28;20039;-90
2021/01/13 01:32:50;;;;;;;0.00;0.00;;;0.60;99.90;;;;;;5034586;28;20059;-89
2021/01/13 01:35:16;;;;;;;0.00;0.00;;;0.50;99.90;;;;;;5034414;28;20029;-89
2021/01/13 01:37:42;;;;;;;1.00;1.00;;;0.50;99.90;;;;;;5034641;28;20037;-90
2021/01/13 01:40:14;;;;;;;0.00;0.00;;;0.50;99.90;;;;;;5034376;28;20054;-89
2021/01/13 01:42:48;;;;;;;0.00;0.00;;;0.40;99.90;;;;;;5034371;28;20033;-88
2021/01/13 01:48:15;;;;;;;0.00;0.00;;;0.20;99.90;;;;;;5029909;28;20034;-89
2021/01/13 01:50:43;;;;;;;0.00;0.00;;;0.10;99.90;;;;;;5013399;28;20045;-89
2021/01/13 01:53:20;;;;;;;0.00;0.00;;;0.10;99.90;;;;;;5013672;28;20587;-89
2021/01/13 01:56:25;;;;;;;0.00;0.00;;;0.20;99.90;;;;;;5013754;28;20041;-89
2021/01/13 01:59:00;;;;;;;0.00;0.00;;;0.40;99.90;;;;;;5012805;28;20053;-90
2021/01/13 02:01:36;;;;;;;0.00;0.00;;;0.50;99.90;;;;;;5013226;28;20037;-89
2021/01/13 02:04:28;;;;;;;0.00;0.00;;;0.50;99.90;;;;;;5013677;28;20037;-89
2021/01/13 02:07:09;;;;;;;0.00;0.00;;;0.60;99.90;;;;;;5013420;28;20045;-89
2021/01/13 02:09:36;;;;;;;0.00;0.00;;;0.50;99.90;;;;;;5013322;28;20025;-89
2021/01/13 02:12:16;;;;;;;0.00;0.00;;;0.50;99.90;;;;;;5013137;28;20075;-89
2021/01/13 02:14:43;;;;;;;;;;;0.50;99.90;;;;;;5013648;28;20030;-90
2021/01/13 02:17:10;;;;;;;0.00;0.00;;;0.50;99.90;;;;;;5012721;28;19953;-89
2021/01/13 02:19:47;;;;;;;0.00;0.00;;;0.40;99.90;;;;;;5013168;28;20048;-89
2021/01/13 02:22:20;;;;;;;0.00;0.00;;;0.30;99.90;;;;;;5012918;28;20059;-91
2021/01/13 02:25:10;;;;;;;0.00;0.00;;;0.40;99.90;;;;;;5018807;28;20045;-89
2021/01/13 02:27:54;;;;;;;0.00;0.00;;;0.20;99.90;;;;;;5033533;28;20033;-89
2021/01/13 02:30:27;;;;;;;0.00;0.00;;;0.00;99.90;;;;;;5033703;28;20032;-89
2021/01/13 02:32:57;;;;;;;0.00;0.00;;;0.00;99.90;;;;;;5033654;28;20106;-89
2021/01/13 02:35:26;;;;;;;0.00;0.00;;;0.00;99.90;;;;;;5033831;28;20071;-89
2021/01/13 02:38:06;;;;;;;0.00;0.00;;;-0.20;99.90;;;;;;5033230;28;20045;-89
2021/01/13 02:40:33;;;;;;;0.00;0.00;;;0.00;99.90;;;;;;5033491;28;20093;-88
2021/01/13 02:43:06;;;;;;;0.00;0.00;;;0.20;99.90;;;;;;5033150;28;20035;-88
2021/01/13 02:45:57;;;;;;;0.00;0.00;;;0.20;99.90;;;;;;5033409;28;20466;-88
2021/01/13 02:48:23;;;;;;;;;;;0.40;99.90;;;;;;4978032;28;20050;-89
2021/01/13 02:50:57;;;;;;;0.00;0.00;;;0.40;99.90;;;;;;4970111;28;19910;-90
2021/01/13 02:53:23;;;;;;;0.00;0.00;;;0.40;99.90;;;;;;4969948;28;20130;-89
2021/01/13 02:55:48;;;;;;;0.00;0.00;;;0.30;99.90;;;;;;5002505;28;20027;-88
2021/01/13 02:58:24;;;;;;;0.00;0.00;;;0.30;99.90;;;;;;5001183;28;20380;-90
2021/01/13 03:00:51;;;;;;;0.00;0.00;;;0.20;99.90;;;;;;4970230;28;20031;-89
2021/01/13 03:03:17;;;;;;;0.00;0.00;;;0.30;99.90;;;;;;4969955;28;20042;-95
2021/01/13 03:05:47;;;;;;;0.00;0.00;;;0.50;99.90;;;;;;4988685;28;20049;-94
2021/01/13 03:08:13;;;;;;;0.00;0.00;;;0.60;99.90;;;;;;4972835;28;20038;-92
2021/01/13 03:10:41;;;;;;;0.00;0.00;;;0.60;99.90;;;;;;4954185;28;20038;-89
2021/01/13 03:13:08;;;;;;;0.00;0.00;;;0.60;99.90;;;;;;4953904;28;20043;-89
2021/01/13 03:15:35;;;;;;;0.00;0.00;;;0.70;99.90;;;;;;4985842;28;20045;-89
2021/01/13 03:18:09;;;;;;;0.00;0.00;;;0.60;99.90;;;;;;4985451;28;20061;-90
2021/01/13 03:20:54;;;;;;;0.00;0.00;;;0.60;99.90;;;;;;5001805;28;20034;-90
2021/01/13 03:23:22;;;;;;;0.00;0.00;;;0.80;99.90;;;;;;4953303;28;20037;-89
2021/01/13 03:25:54;;;;;;;0.00;0.00;;;0.60;99.90;;;;;;5023217;28;20037;-90
2021/01/13 03:28:23;;;;;;;0.00;0.00;;;0.70;99.90;;;;;;5032657;28;20040;-90
2021/01/13 03:30:51;;;;;;;0.00;0.00;;;0.80;99.90;;;;;;5032123;28;20055;-90
2021/01/13 03:33:22;;;;;;;0.00;0.00;;;0.80;99.90;;;;;;5032158;28;20752;-89
2021/01/13 03:36:11;;;;;;;0.00;0.00;;;0.80;99.90;;;;;;5032387;28;20029;-87
2021/01/13 03:39:03;;;;;;;0.00;0.00;;;1.00;99.90;;;;;;5032151;28;20037;-88
2021/01/13 03:41:38;;;;;;;0.00;0.00;;;1.10;99.90;;;;;;5032619;28;20035;-88
2021/01/13 03:44:08;;;;;;;0.00;0.00;;;1.10;99.90;;;;;;5032436;28;20083;-89
2021/01/13 03:46:34;;;;;;;0.00;0.00;;;1.00;99.90;;;;;;5032032;28;20032;-88
2021/01/13 03:49:03;;;;;;;0.00;0.00;;;0.90;99.90;;;;;;5048683;28;20058;-88
2021/01/13 03:51:48;;;;;;;0.00;0.00;;;0.90;99.90;;;;;;5032486;28;20025;-89
2021/01/13 03:54:14;;;;;;;0.00;0.00;;;1.10;99.90;;;;;;5032169;28;20037;-89
2021/01/13 03:56:59;;;;;;;0.00;0.00;;;1.00;99.90;;;;;;5032076;28;20035;-90
2021/01/13 04:00:02;;;;;;;0.10;0.10;;;1.10;99.90;;;;;;5032065;28;20063;-96
2021/01/13 04:02:47;;;;;;;0.00;0.00;;;1.10;99.90;;;;;;5051333;28;20063;-88
2021/01/13 04:05:23;;;;;;;0.00;0.00;;;1.30;99.90;;;;;;5034060;28;20037;-88
2021/01/13 04:07:50;;;;;;;1.15;0.95;;;1.30;99.90;;;;;;5033886;28;20048;-88
2021/01/13 04:10:17;;;;;;;0.00;0.00;;;1.50;99.90;;;;;;5033534;28;20040;-89
2021/01/13 04:13:02;;;;;;;0.00;0.00;;;1.60;99.90;;;;;;5031794;28;20057;-89
2021/01/13 04:15:36;;;;;;;0.00;0.00;;;1.60;99.90;;;;;;5001704;28;20041;-89
2021/01/13 04:18:07;;;;;;;0.00;0.00;;;1.60;99.90;;;;;;5031606;28;20497;-89
2021/01/13 04:20:34;;;;;;;0.00;0.00;;;1.70;99.90;;;;;;5032045;28;20052;-88
2021/01/13 04:23:00;;;;;;;0.00;0.00;;;1.70;99.90;;;;;;5031967;28;20025;-89
2021/01/13 04:25:26;;;;;;;0.00;0.00;;;1.70;99.90;;;;;;5031866;28;20032;-90
2021/01/13 04:27:52;;;;;;;0.00;0.00;;;1.70;99.90;;;;;;5031751;28;20033;-90
2021/01/13 04:30:18;;;;;;;0.00;0.00;;;1.70;99.90;;;;;;5031539;28;20067;-89
2021/01/13 04:32:44;;;;;;;0.00;0.00;;;1.70;99.90;;;;;;5031806;28;20029;-88
2021/01/13 04:35:10;;;;;;;0.00;0.00;;;1.80;99.90;;;;;;5031702;28;20047;-89
2021/01/13 04:37:39;;;;;;;0.10;0.10;;;1.90;99.90;;;;;;5048168;28;20045;-90
2021/01/13 04:40:31;;;;;;;0.00;0.00;;;1.90;99.90;;;;;;5031500;28;20345;-88
2021/01/13 04:43:01;;;;;;;0.00;0.00;;;1.90;99.90;;;;;;5048027;28;20029;-90
2021/01/13 04:45:50;;;;;;;1.30;1.20;;;2.00;99.90;;;;;;5031451;28;20047;-88
2021/01/13 04:48:19;;;;;;;0.00;0.00;;;2.00;99.90;;;;;;4987405;28;20049;-87
2021/01/13 04:50:53;;;;;;;0.00;0.00;;;2.00;99.90;;;;;;5003933;28;20049;-90
2021/01/13 04:53:22;;;;;;;0.08;0.00;;;2.00;99.90;;;;;;4987821;28;20051;-90
2021/01/13 04:55:50;;;;;;;0.00;0.00;;;2.00;99.90;;;;;;4971689;28;20054;-90
2021/01/13 04:58:43;;;;;;;0.00;0.00;;;2.00;99.90;;;;;;4987740;28;20109;-89
2021/01/13 05:01:44;;;;;;;0.00;0.00;;;2.00;99.90;;;;;;4987952;28;20054;-89
2021/01/13 05:04:27;;;;;;;1.65;0.63;;;2.00;99.90;;;;;;4987995;28;20042;-88
2021/01/13 05:07:25;;;;;;;8.07;0.45;;;2.00;99.90;;;;;;4987864;28;20042;-87
2021/01/13 05:09:58;;;;;;;0.00;0.00;;;2.00;99.90;;;;;;4971404;28;20034;-88
2021/01/13 05:12:43;;;;;;;0.00;0.00;;;2.00;99.90;;;;;;4987866;28;20038;-87
2021/01/13 05:15:17;;;;;;;0.00;0.00;;;2.10;99.90;;;;;;4987910;28;20026;-87
2021/01/13 05:18:08;;;;;;;0.00;0.00;;;2.10;99.90;;;;;;4987159;28;20046;-86
2021/01/13 05:20:39;;;;;;;0.00;0.00;;;2.10;99.90;;;;;;4986154;28;20574;-88
2021/01/13 05:23:06;;;;;;;0.00;0.00;;;2.10;99.90;;;;;;4991212;28;20113;-86
2021/01/13 05:25:37;;;;;;;0.00;0.00;;;2.10;99.90;;;;;;5048572;28;20116;-87
2021/01/13 05:28:11;;;;;;;0.00;0.00;;;2.00;99.90;;;;;;5064534;28;20120;-87
2021/01/13 05:30:41;;;;;;;0.00;0.00;;;2.00;99.90;;;;;;5014754;28;20112;-87
2021/01/13 05:33:12;;;;;;;0.00;0.00;;;1.90;99.90;;;;;;5064500;28;20120;-87
2021/01/13 05:35:41;;;;;;;0.00;0.00;;;1.80;99.90;;;;;;5047646;28;20033;-87
2021/01/13 05:38:14;;;;;;;0.00;0.00;;;1.90;99.90;;;;;;5047457;28;20057;-87
2021/01/13 05:40:49;;;;;;;0.00;0.00;;;1.80;99.90;;;;;;5047511;28;20057;-88
2021/01/13 05:43:16;;;;;;;0.00;0.00;;;1.70;99.90;;;;;;5047577;28;20110;-88
2021/01/13 05:46:08;;;;;;;0.00;0.00;;;1.60;99.90;;;;;;5079779;28;20036;-89
2021/01/13 05:48:39;;;;;;;0.00;0.00;;;1.50;99.90;;;;;;4988384;28;20058;-89
2021/01/13 05:51:05;;;;;;;0.00;0.00;;;1.50;99.90;;;;;;4971274;28;20093;-88
2021/01/13 05:53:31;;;;;;;0.00;0.00;;;1.40;99.90;;;;;;4986603;28;20069;-89
2021/01/13 05:55:59;;;;;;;0.00;0.00;;;1.40;99.90;;;;;;4987604;28;20038;-89
2021/01/13 05:58:26;;;;;;;0.00;0.00;;;1.50;99.90;;;;;;4987466;28;20110;-89
2021/01/13 06:00:54;;;;;;;0.00;0.00;;;1.40;99.90;;;;;;4971405;28;20447;-89
2021/01/13 06:03:22;;;;;;;0.00;0.00;;;1.50;99.90;;;;;;5003648;28;20102;-89
2021/01/13 06:05:50;;;;;;;0.00;0.00;;;1.40;99.90;;;;;;4954355;28;20036;-89
2021/01/13 06:08:17;;;;;;;0.25;0.25;;;1.50;99.90;;;;;;4951925;29;20047;-88
2021/01/13 06:10:44;;;;;;;0.00;0.00;;;1.60;99.90;;;;;;4951993;29;20066;-88
2021/01/13 06:13:15;;;;;;;0.00;0.00;;;1.80;99.90;;;;;;4936081;29;20174;-89
2021/01/13 06:15:44;;;;;;;0.00;0.00;;;1.80;99.90;;;;;;4935882;29;20414;-88
2021/01/13 06:18:14;;;;;;;0.00;0.00;;;1.80;99.90;;;;;;4952110;29;20147;-90
2021/01/13 06:20:41;;;;;;;0.00;0.00;;;1.70;99.90;;;;;;4950809;29;20035;-89
2021/01/13 06:23:11;;;;;;;0.00;0.00;;;1.70;99.90;;;;;;4935724;29;20035;-90
2021/01/13 06:25:39;;;;;;;0.75;0.55;;;1.70;99.90;;;;;;4977821;28;20316;-88
2021/01/13 06:28:23;;;;;;;0.22;0.15;;;1.70;99.90;;;;;;5013835;28;20107;-87
2021/01/13 06:31:01;;;;;;;0.00;0.00;;;1.90;99.90;;;;;;5015276;28;20029;-88
2021/01/13 06:33:50;;;;;;;0.10;0.00;;;1.90;99.90;;;;;;5030380;28;20474;-88
2021/01/13 06:36:46;;;;;;;0.00;0.00;;;1.90;99.90;;;;;;5013736;28;20033;-87
2021/01/13 06:39:23;;;;;;;0.00;0.00;;;1.80;99.90;;;;;;5030013;28;20045;-88
2021/01/13 06:41:49;;;;;;;0.00;0.00;;;1.80;99.90;;;;;;5019244;28;20029;-87
2021/01/13 06:44:18;;;;;;;0.00;0.00;;;1.70;99.90;;;;;;5029954;28;20025;-87
2021/01/13 06:46:44;;;;;;;1.40;0.27;;;1.70;99.90;;;;;;5050590;28;20036;-88
2021/01/13 06:49:18;;;;;;;0.00;0.00;;;1.70;99.90;;;;;;5049209;28;20029;-88
2021/01/13 06:51:47;;;;;;;0.00;0.00;;;1.70;99.90;;;;;;5033153;28;20101;-89
2021/01/13 06:54:21;;;;;;;0.00;0.00;;;1.70;99.90;;;;;;5032716;28;20029;-87
2021/01/13 06:56:52;;;;;;;0.40;0.40;;;1.70;99.90;;;;;;5032386;28;20123;-86
2021/01/13 06:59:20;;;;;;;0.00;0.00;;;1.80;99.90;;;;;;5049338;28;20064;-88
2021/01/13 07:01:54;;;;;;;0.98;0.88;;;1.70;99.90;;;;;;5032930;28;20052;-88
2021/01/13 07:04:20;;;;;;;0.00;0.00;;;1.80;99.90;;;;;;5032549;28;20029;-89
2021/01/13 07:07:06;;;;;;;0.00;0.00;;;1.70;99.90;;;;;;5032834;28;20032;-88
2021/01/13 07:09:36;;;;;;;0.00;0.00;;;1.70;99.90;;;;;;5032361;28;20025;-89
2021/01/13 07:12:06;;;;;;;;;;;1.60;99.90;;;;;;5033046;28;20037;-89
2021/01/13 07:14:35;;;;;;;0.00;0.00;;;1.60;99.90;;;;;;5007872;28;19917;-89
2021/01/13 07:17:01;;;;;;;0.00;0.00;;;1.60;99.90;;;;;;5031430;28;20048;-89
2021/01/13 07:19:28;;;;;;;0.00;0.00;;;1.60;99.90;;;;;;5032261;28;20044;-90
2021/01/13 07:21:53;;;;;;;0.10;0.10;;;1.50;99.90;;;;;;5032552;28;20057;-88
2021/01/13 07:24:19;;;;;;;0.00;0.00;;;1.40;99.90;;;;;;5032099;28;20029;-88
2021/01/13 07:26:45;;;;;;;0.00;0.00;;;1.30;99.90;;;;;;5032529;28;20096;-87
2021/01/13 07:29:11;;;;;;;0.00;0.00;;;1.30;99.90;;;;;;5032306;28;20040;-91
2021/01/13 07:31:37;;;;;;;0.00;0.00;;;1.30;99.90;;;;;;5032768;28;20059;-88
2021/01/13 07:34:09;;;;;;;0.00;0.00;;;1.30;99.90;;;;;;5066747;28;20052;-88
2021/01/13 07:36:39;;;;;;;0.00;0.00;;;1.40;99.90;;;;;;5048820;28;20039;-86
2021/01/13 07:39:07;;;;;;;0.28;0.10;;;1.40;99.90;;;;;;5032043;28;20037;-88
2021/01/13 07:41:57;;;;;;;0.00;0.00;;;1.50;99.90;;;;;;5032282;28;20029;-87
2021/01/13 07:44:44;;;;;;;0.00;0.00;;;1.40;99.90;;;;;;5031591;28;20100;-88
2021/01/13 07:47:28;;;;;;;1.15;1.13;;;1.40;99.90;;;;;;5031975;28;20025;-87
2021/01/13 07:50:10;;;;;;;0.00;0.00;;;1.50;99.90;;;;;;5031499;28;20043;-88
2021/01/13 07:52:44;;;;;;;0.00;0.00;;;1.50;99.90;;;;;;5031414;28;20029;-87
2021/01/13 07:55:23;;;;;;;0.00;0.00;;;1.60;99.90;;;;;;5031671;28;20456;-87
2021/01/13 07:57:57;;;;;;;0.38;0.10;;;1.50;99.90;;;;;;5031571;28;20124;-87
2021/01/13 08:00:32;;;;;;;0.00;0.00;;;1.50;99.90;;;;;;5031269;28;20484;-86
2021/01/13 08:03:30;;;;;;;0.00;0.00;;;1.60;99.90;;;;;;5031454;28;20029;-87
2021/01/13 08:06:14;;;;;;;0.00;0.00;;;1.60;99.90;;;;;;5031146;28;20033;-87
2021/01/13 08:09:17;;;;;;;0.00;0.00;;;1.60;99.90;;;;;;5031036;28;20025;-85
2021/01/13 08:12:14;;;;;;;0.00;0.00;;;1.60;99.90;;;;;;5024964;28;20114;-88
2021/01/13 08:15:23;;;;;;;0.00;0.00;;;1.50;99.90;;;;;;5031041;28;20050;-89
2021/01/13 08:18:14;;;;;;;0.00;0.00;;;1.50;99.90;;;;;;5031059;28;20077;-87
2021/01/13 08:21:09;;;;;;;0.00;0.00;;;1.50;99.90;;;;;;5030976;28;20036;-86
2021/01/13 08:24:25;;;;;;;0.00;0.00;;;1.50;99.90;;;;;;5031100;28;20473;-88
2021/01/13 08:26:22;;;;;;;0.00;0.00;;;1.50;99.90;;;;;;5037171;28;20037;-88
2021/01/13 08:28:51;;;;;;;0.00;0.00;;;1.50;99.90;;;;;;5030795;28;20037;-88
2021/01/13 08:31:22;;;;;;;0.00;0.00;;;1.50;99.90;;;;;;5031105;28;20056;-88
2021/01/13 08:33:50;;;;;;;0.00;0.00;;;1.50;99.90;;;;;;5031189;28;20037;-87
2021/01/13 08:36:16;;;;;;;2.47;0.00;;;1.50;99.90;;;;;;5031388;28;20484;-89
2021/01/13 08:39:04;;;;;;;0.20;0.13;;;1.60;99.90;;;;;;5031107;28;20447;-87
2021/01/13 08:41:30;;;;;;;0.00;0.00;;;1.60;99.90;;;;;;5047602;28;20028;-87
2021/01/13 08:44:37;;;;;;;0.00;0.00;;;1.70;99.90;;;;;;5030800;28;20039;-88
2021/01/13 08:47:03;;;;;;;0.00;0.00;;;1.80;99.90;;;;;;5025523;28;20445;-90
2021/01/13 08:49:31;;;;;;;0.00;0.00;;;1.80;99.90;;;;;;5027201;28;20156;-90
2021/01/13 08:52:22;;;;;;;0.00;0.00;;;1.90;99.90;;;;;;5027420;28;20079;-89
2021/01/13 08:54:57;;;;;;;0.00;0.00;;;1.90;99.90;;;;;;5029147;28;20398;-87
2021/01/13 08:57:26;;;;;;;2.40;0.65;;;2.00;99.90;;;;;;5015045;28;20033;-86
2021/01/13 08:59:52;;;;;;;0.00;0.00;;;2.10;99.90;;;;;;5030992;28;20053;-89
2021/01/13 09:02:18;;;;;;;0.00;0.00;;;2.20;99.90;;;;;;5031140;28;20036;-89
2021/01/13 09:04:52;;;;;;;0.00;0.00;;;2.20;99.90;;;;;;5014815;28;20061;-88
2021/01/13 09:07:20;;;;;;;2.10;0.05;;;2.20;99.90;;;;;;5031236;28;20101;-88
2021/01/13 09:09:56;;;;;;;0.00;0.00;;;2.30;99.90;;;;;;5030973;28;20049;-88
2021/01/13 09:12:34;;;;;;;0.00;0.00;;;2.40;99.90;;;;;;5031228;28;20029;-89
2021/01/13 09:15:08;;;;;;;0.28;0.28;;;2.40;99.90;;;;;;5030909;28;20041;-91
2021/01/13 09:17:38;;;;;;;0.00;0.00;;;2.40;99.90;;;;;;5014266;28;20045;-87
2021/01/13 09:20:05;;;;;;;0.77;0.77;;;2.50;99.90;;;;;;5014398;28;20128;-86
2021/01/13 09:22:45;;;;;;;0.00;0.00;;;2.60;99.90;;;;;;5030980;28;20080;-91
2021/01/13 09:25:17;;;;;;;0.00;0.00;;;2.70;99.90;;;;;;5030910;28;20141;-89
2021/01/13 09:28:01;;;;;;;0.10;0.10;;;2.80;99.90;;;;;;5030903;28;20073;-88
2021/01/13 09:30:41;;;;;;;0.00;0.00;;;2.80;99.90;;;;;;5030565;28;20084;-88
2021/01/13 09:33:09;;;;;;;0.00;0.00;;;2.80;99.90;;;;;;5030784;28;20068;-87
2021/01/13 09:35:37;;;;;;;0.00;0.00;;;2.70;99.90;;;;;;5030712;28;20041;-87
2021/01/13 09:38:11;;;;;;;0.00;0.00;;;2.80;99.90;;;;;;5030493;28;20042;-88
2021/01/13 09:40:53;;;;;;;3.30;0.65;;;2.80;99.90;;;;;;5030406;28;20099;-87
2021/01/13 09:43:36;;;;;;;0.00;0.00;;;2.80;99.90;;;;;;5014684;28;20029;-88
2021/01/13 09:49:08;;;;;;;0.00;0.00;;;3.10;99.90;;;;;;5007021;28;20099;-86
2021/01/13 09:51:35;;;;;;;0.03;0.00;;;3.20;99.90;;;;;;5007778;28;20039;-87
2021/01/13 09:54:03;;;;;;;6.07;3.30;;;3.30;99.90;;;;;;4991514;28;20038;-85
2021/01/13 09:56:30;;;;;;;0.00;0.00;;;3.40;99.90;;;;;;4991378;28;20034;-87
2021/01/13 09:58:59;;;;;;;0.00;0.00;;;3.40;99.90;;;;;;4991156;28;20235;-87
2021/01/13 10:01:27;;;;;;;0.55;0.55;;;3.60;99.90;;;;;;4991353;28;20117;-85
2021/01/13 10:03:55;;;;;;;0.00;0.00;;;3.90;99.90;;;;;;4991364;28;20035;-87
2021/01/13 10:06:31;;;;;;;0.00;0.00;;;4.10;99.90;;;;;;5007002;28;20034;-85
2021/01/13 10:08:59;;;;;;;0.00;0.00;;;4.20;99.90;;;;;;5008561;28;20038;-85
2021/01/13 10:11:28;;;;;;;0.00;0.00;;;4.00;99.90;;;;;;4991062;28;20038;-86
2021/01/13 10:14:00;;;;;;;0.00;0.00;;;4.00;99.90;;;;;;4991061;28;20081;-84
2021/01/13 10:16:27;;;;;;;0.00;0.00;;;3.90;99.90;;;;;;4990928;28;20093;-85
2021/01/13 10:18:58;;;;;;;0.00;0.00;;;3.80;99.90;;;;;;4990974;28;20048;-83
2021/01/13 10:21:32;;;;;;;0.30;0.30;;;3.70;99.90;;;;;;4990933;28;20034;-84
2021/01/13 10:24:06;;;;;;;0.15;0.00;;;3.50;99.90;;;;;;4990804;28;20057;-83
2021/01/13 10:26:38;;;;;;;0.00;0.00;;;3.50;99.90;;;;;;5007190;28;20399;-84
2021/01/13 10:29:05;;;;;;;1.85;0.75;;;3.60;99.90;;;;;;4990574;28;20026;-84
2021/01/13 10:31:32;;;;;;;0.00;0.00;;;3.70;99.90;;;;;;4990691;28;20034;-83
2021/01/13 10:33:58;;;;;;;0.00;0.00;;;3.80;99.90;;;;;;4990539;28;20038;-84
2021/01/13 10:36:30;;;;;;;1.65;0.43;;;3.90;99.90;;;;;;4990202;28;20034;-84
2021/01/13 10:39:00;;;;;;;0.00;0.00;;;4.00;99.90;;;;;;4990071;28;20049;-86
2021/01/13 10:41:43;;;;;;;;;;;4.00;99.90;;;;;;4990678;28;20045;-83
2021/01/13 10:44:21;;;;;;;7.78;0.43;;;4.10;99.90;;;;;;5006583;28;19965;-85
2021/01/13 10:46:52;;;;;;;1.55;0.65;;;4.10;99.90;;;;;;5006309;28;20046;-90
2021/01/13 10:49:39;;;;;;;0.00;0.00;;;4.20;99.90;;;;;;5006294;28;20045;-84
2021/01/13 10:52:16;;;;;;;1.90;1.80;;;4.30;99.90;;;;;;4989880;28;20035;-85
2021/01/13 10:54:43;;;;;;;0.00;0.00;;;4.40;99.90;;;;;;4990391;28;20096;-86
2021/01/13 10:57:11;;;;;;;1.45;0.00;;;4.60;99.90;;;;;;4989939;28;20049;-83
2021/01/13 10:59:40;;;;;;;0.00;0.00;;;4.60;99.90;;;;;;4989877;28;20046;-86
2021/01/13 11:02:07;;;;;;;0.00;0.00;;;4.60;99.90;;;;;;5006344;28;20031;-85
2021/01/13 11:04:37;;;;;;;0.93;0.32;;;4.50;99.90;;;;;;4990368;28;20102;-84
2021/01/13 11:07:07;;;;;;;0.00;0.00;;;4.40;99.90;;;;;;5006133;28;20041;-85
2021/01/13 11:09:39;;;;;;;0.00;0.00;;;4.50;99.90;;;;;;5006073;28;20038;-84
2021/01/13 11:12:06;;;;;;;0.00;0.00;;;4.40;99.90;;;;;;4989911;28;20041;-85
2021/01/13 11:14:40;;;;;;;3.42;3.15;;;4.40;99.90;;;;;;4989900;28;20081;-84
2021/01/13 11:17:11;;;;;;;0.00;0.00;;;4.40;99.90;;;;;;4989697;28;20034;-85
2021/01/13 11:19:39;;;;;;;0.13;0.00;;;4.30;99.90;;;;;;4988935;28;20034;-85
2021/01/13 11:22:05;;;;;;;1.35;0.10;;;4.40;99.90;;;;;;4989523;28;20030;-85
2021/01/13 11:24:39;;;;;;;0.00;0.00;;;4.50;99.90;;;;;;4989702;28;20041;-87
2021/01/13 11:27:15;;;;;;;0.00;0.00;;;4.50;99.90;;;;;;4989314;28;20192;-84
2021/01/13 11:29:45;;;;;;;2.95;0.45;;;4.60;99.90;;;;;;4989318;28;20045;-85
2021/01/13 11:32:16;;;;;;;1.30;0.00;;;4.60;99.90;;;;;;4989492;28;20030;-84
2021/01/13 11:34:50;;;;;;;6.38;0.47;;;4.70;99.90;;;;;;4990427;28;20030;-84
2021/01/13 11:37:25;;;;;;;0.88;0.00;;;4.70;99.90;;;;;;4989294;28;20390;-85
2021/01/13 11:40:20;;;;;;;0.35;0.28;;;4.90;99.90;;;;;;4989141;28;20097;-85
2021/01/13 11:43:21;;;;;;;0.00;0.00;;;5.00;99.90;;;;;;4989310;28;20034;-85
2021/01/13 11:46:09;;;;;;;0.00;0.00;;;5.00;99.90;;;;;;4989231;28;20034;-85
2021/01/13 11:49:03;;;;;;;0.00;0.00;;;4.90;99.90;;;;;;4948956;29;20047;-84
2021/01/13 11:51:33;;;;;;;0.00;0.00;;;4.90;99.90;;;;;;4965488;29;20027;-85
2021/01/13 11:54:00;;;;;;;0.40;0.32;;;4.80;99.90;;;;;;4965795;29;20086;-85
2021/01/13 11:56:30;;;;;;;0.00;0.00;;;4.80;99.90;;;;;;4965495;29;20107;-84
2021/01/13 11:58:56;;;;;;;0.20;0.20;;;4.70;99.90;;;;;;4965336;29;20050;-84
2021/01/13 12:01:24;;;;;;;0.43;0.38;;;4.80;99.90;;;;;;4965408;29;20468;-83
2021/01/13 12:04:00;;;;;;;0.20;0.00;;;4.70;99.90;;;;;;4949519;29;20043;-83
2021/01/13 12:06:26;;;;;;;0.10;0.00;;;4.60;99.90;;;;;;4965069;29;20046;-85
2021/01/13 12:08:52;;;;;;;0.00;0.00;;;4.70;99.90;;;;;;4964951;29;20035;-85
2021/01/13 12:11:18;;;;;;;0.00;0.00;;;4.70;99.90;;;;;;4965023;29;20031;-85
2021/01/13 12:13:45;;;;;;;0.00;0.00;;;4.80;99.90;;;;;;4965495;29;20086;-84
2021/01/13 12:16:18;;;;;;;0.32;0.00;;;4.80;99.90;;;;;;4933324;29;20173;-83
2021/01/13 12:18:47;;;;;;;0.32;0.25;;;4.90;99.90;;;;;;4965064;29;20063;-84
2021/01/13 12:21:12;;;;;;;1.45;0.50;;;4.80;99.90;;;;;;4964974;29;20027;-84
2021/01/13 12:23:42;;;;;;;0.00;0.00;;;4.90;99.90;;;;;;4933330;29;20063;-84
2021/01/13 12:26:19;;;;;;;0.20;0.20;;;4.70;99.90;;;;;;4979570;28;20078;-84
2021/01/13 12:28:47;;;;;;;0.55;0.47;;;4.70;99.90;;;;;;4969159;28;20045;-85
2021/01/13 12:31:14;;;;;;;0.00;0.00;;;4.70;99.90;;;;;;4969341;28;20062;-84
2021/01/13 12:33:51;;;;;;;0.00;0.00;;;4.90;99.90;;;;;;4969209;28;20031;-84
2021/01/13 12:36:22;;;;;;;1.60;0.17;;;5.20;99.90;;;;;;4969616;28;20039;-83
2021/01/13 12:38:48;;;;;;;0.00;0.00;;;5.30;99.90;;;;;;4969185;28;20069;-85
2021/01/13 12:41:25;;;;;;;0.00;0.00;;;5.40;99.90;;;;;;4969106;28;20033;-84
2021/01/13 12:43:52;;;;;;;0.57;0.57;;;5.20;99.90;;;;;;4969403;28;20030;-85
2021/01/13 12:46:29;;;;;;;0.00;0.00;;;5.10;99.90;;;;;;4968832;28;20097;-87
2021/01/13 12:48:56;;;;;;;0.00;0.00;;;5.20;99.90;;;;;;5004423;28;20133;-86
2021/01/13 12:51:22;;;;;;;0.10;0.00;;;5.20;99.90;;;;;;5004496;28;20038;-86
2021/01/13 12:53:47;;;;;;;0.00;0.00;;;5.00;99.90;;;;;;4988022;28;20062;-87
2021/01/13 12:56:39;;;;;;;0.15;0.15;;;5.10;99.90;;;;;;4988347;28;20475;-86
2021/01/13 12:59:05;;;;;;;0.00;0.00;;;4.90;99.90;;;;;;4986447;28;20510;-85
2021/01/13 13:01:39;;;;;;;0.80;0.10;;;5.00;99.90;;;;;;4988799;28;20041;-87
2021/01/13 13:04:04;;;;;;;0.00;0.00;;;5.20;99.90;;;;;;4988543;28;20038;-86
2021/01/13 13:06:32;;;;;;;0.20;0.20;;;5.30;99.90;;;;;;4989071;28;20030;-87
2021/01/13 13:09:05;;;;;;;1.45;0.88;;;5.40;99.90;;;;;;4988619;28;20073;-86
2021/01/13 13:11:31;;;;;;;0.00;0.00;;;5.50;99.90;;;;;;4989499;28;20036;-86
2021/01/13 13:13:58;;;;;;;5.03;0.75;;;5.50;99.90;;;;;;4988901;28;20125;-86
2021/01/13 13:16:24;;;;;;;0.00;0.00;;;5.50;99.90;;;;;;4988589;28;20031;-85
2021/01/13 13:18:54;;;;;;;0.00;0.00;;;5.50;99.90;;;;;;5004729;28;20072;-86
2021/01/13 13:21:22;;;;;;;0.00;0.00;;;5.40;99.90;;;;;;4988464;28;20045;-86
2021/01/13 13:23:48;;;;;;;1.95;1.85;;;5.40;99.90;;;;;;4989468;28;20038;-86
2021/01/13 13:26:15;;;;;;;0.00;0.00;;;5.50;99.90;;;;;;4989454;28;20026;-86
2021/01/13 13:28:41;;;;;;;1.08;0.00;;;5.40;99.90;;;;;;4988879;28;20023;-86
2021/01/13 13:31:07;;;;;;;0.00;0.00;;;5.30;99.90;;;;;;4989227;28;20038;-86